Time;durP1;ratioP1;P1;durP2;ratioP2;P2;SDS_P1;SDS_P2;PMS_P1;PMS_P2;Temp;Humidity;BMP_temperature;BMP_pressure;BME280_temperature;BME280_humidity;BME280_pressure;Samples;Min_cycle;Max_cycle;Signal;HPM_P1;HPM_P2
2021/04/03 00:00:51;;;;;;;14.52;7.93;;;7.10;99.90;;;6.43;83.41;102101.81;4138152;28;20063;-77
2021/04/03 00:02:54;;;;;;;19.08;8.57;;;7.10;99.90;;;6.53;82.76;102099.44;4136996;28;20525;-77
2021/04/03 00:04:54;;;;;;;15.40;7.90;;;7.10;99.90;;;6.59;82.61;102099.91;4137730;28;20069;-77
2021/04/03 00:06:55;;;;;;;14.77;8.32;;;7.10;99.90;;;6.58;82.58;102110.47;4138005;28;20026;-78
2021/04/03 00:08:56;;;;;;;13.63;8.05;;;7.00;99.90;;;6.66;82.26;102114.28;4136860;28;20100;-77
2021/04/03 00:11:05;;;;;;;16.00;7.78;;;7.10;99.90;;;6.50;82.93;102107.50;4137718;28;20030;-77
2021/04/03 00:13:06;;;;;;;17.45;7.97;;;7.00;99.90;;;6.29;83.23;102114.94;4136829;28;20026;-77
2021/04/03 00:15:08;;;;;;;19.00;8.13;;;7.00;99.90;;;6.46;82.56;102101.59;4137696;28;20517;-76
2021/04/03 00:17:09;;;;;;;15.05;7.40;;;6.90;99.90;;;6.53;82.00;102113.41;4137942;28;20509;-76
2021/04/03 00:19:10;;;;;;;18.13;7.95;;;7.00;99.90;;;6.55;82.63;102111.50;4138019;28;20027;-77
2021/04/03 00:21:12;;;;;;;16.83;7.40;;;7.00;99.90;;;6.42;82.41;102120.25;4137805;28;20031;-78
2021/04/03 00:23:14;;;;;;;14.60;8.32;;;6.90;99.90;;;6.24;83.18;102126.63;4137563;28;20058;-78
2021/04/03 00:25:17;;;;;;;15.98;7.63;;;6.90;99.90;;;6.07;84.52;102123.25;4137475;28;20147;-78
2021/04/03 00:27:18;;;;;;;16.95;8.15;;;6.80;99.90;;;6.36;83.44;102124.06;4137830;28;20084;-77
2021/04/03 00:29:19;;;;;;;14.35;8.00;;;6.80;99.90;;;6.29;82.47;102132.44;4137779;28;20026;-77
2021/04/03 00:31:20;;;;;;;13.23;7.95;;;6.80;99.90;;;6.10;83.78;102132.72;4137778;28;20022;-77
2021/04/03 00:33:21;;;;;;;18.00;8.82;;;6.80;99.90;;;5.94;83.99;102127.53;4137827;28;20394;-77
2021/04/03 00:35:31;;;;;;;11.60;7.22;;;6.70;99.90;;;5.77;85.11;102132.91;4137468;28;20074;-78
2021/04/03 00:37:32;;;;;;;14.13;7.93;;;6.60;99.90;;;5.72;85.30;102134.97;4137604;28;20038;-77
2021/04/03 00:39:32;;;;;;;14.90;9.43;;;6.60;99.90;;;5.83;85.14;102139.56;4137362;28;20022;-78
2021/04/03 00:41:33;;;;;;;12.80;8.38;;;6.50;99.90;;;5.78;85.55;102131.16;4137661;28;20022;-77
2021/04/03 00:43:34;;;;;;;18.48;7.88;;;6.50;99.90;;;5.77;85.41;102132.06;4137450;28;20101;-78
2021/04/03 00:45:36;;;;;;;19.90;8.10;;;6.50;99.90;;;5.67;85.28;102144.88;4137429;28;20057;-77
2021/04/03 00:47:37;;;;;;;18.60;7.90;;;6.40;99.90;;;5.46;86.20;102133.06;4137432;28;20029;-77
2021/04/03 00:49:38;;;;;;;16.45;8.85;;;6.40;99.90;;;5.66;85.62;102134.50;4137085;28;20238;-76
2021/04/03 00:51:40;;;;;;;27.20;9.40;;;6.40;99.90;;;5.58;85.46;102137.56;4119899;28;20041;-76
2021/04/03 00:53:41;;;;;;;18.60;7.82;;;6.20;99.90;;;5.78;84.58;102137.25;4137345;28;20061;-77
2021/04/03 00:55:42;;;;;;;18.60;9.38;;;6.30;99.90;;;5.50;86.12;102140.63;4136777;28;20031;-77
2021/04/03 00:57:44;;;;;;;14.85;8.02;;;6.30;99.90;;;5.56;86.20;102140.28;4137383;28;20027;-77
2021/04/03 00:59:45;;;;;;;17.33;8.82;;;6.20;99.90;;;5.80;84.21;102137.97;4137280;28;20026;-77
2021/04/03 01:01:46;;;;;;;14.35;8.35;;;6.20;99.90;;;5.81;83.68;102138.81;4137374;28;20490;-77
2021/04/03 01:03:47;;;;;;;16.58;9.18;;;6.30;99.90;;;5.75;83.71;102118.25;4137267;28;20034;-78
2021/04/03 01:05:48;;;;;;;16.58;8.65;;;6.30;99.90;;;5.75;82.84;102126.09;4136161;28;20136;-78
2021/04/03 01:07:49;;;;;;;14.25;8.45;;;6.30;99.90;;;5.90;81.51;102128.69;4137321;28;20117;-76
2021/04/03 01:09:50;;;;;;;17.48;8.80;;;6.30;99.90;;;5.58;83.80;102127.94;4136988;28;20041;-77
2021/04/03 01:12:31;;;;;;;16.95;9.07;;;6.30;99.90;;;5.69;83.28;102129.09;4135711;28;20034;-77
2021/04/03 01:14:58;;;;;;;20.52;8.70;;;6.30;99.90;;;5.69;81.21;102136.94;4122888;28;20100;-77
2021/04/03 01:17:28;;;;;;;14.32;8.00;;;6.30;99.90;;;5.86;81.83;102144.66;4135286;28;20030;-77
2021/04/03 01:20:05;;;;;;;13.82;8.30;;;6.30;99.90;;;5.67;81.50;102141.44;4135870;28;20022;-77
2021/04/03 01:22:14;;;;;;;12.23;8.73;;;6.30;99.90;;;5.55;81.81;102143.81;4137048;28;20031;-77
2021/04/03 01:24:46;;;;;;;15.02;8.70;;;6.20;99.90;;;5.68;81.77;102146.56;4137110;28;20109;-77
2021/04/03 01:26:53;;;;;;;16.27;8.00;;;6.20;99.90;;;5.73;81.76;102143.69;4136745;28;20074;-77
2021/04/03 01:29:15;;;;;;;12.10;8.50;;;6.20;99.90;;;5.72;81.41;102147.22;4136910;28;20145;-77
2021/04/03 01:31:16;;;;;;;15.13;7.82;;;6.20;99.90;;;5.66;81.24;102142.34;4136785;28;20049;-77
2021/04/03 01:33:22;;;;;;;17.73;8.00;;;6.20;99.90;;;5.63;81.23;102143.38;4135451;28;20109;-76
2021/04/03 01:35:50;;;;;;;13.77;8.70;;;6.20;99.90;;;5.58;81.34;102141.00;4135556;28;20026;-76
2021/04/03 01:38:01;;;;;;;15.25;9.15;;;6.20;99.90;;;5.38;82.93;102145.72;4127752;28;20037;-76
2021/04/03 01:40:03;;;;;;;12.30;7.43;;;6.10;99.90;;;5.52;81.26;102145.78;4135351;28;20062;-77
2021/04/03 01:42:09;;;;;;;13.18;8.05;;;6.10;99.90;;;5.21;82.14;102151.94;4136759;28;20555;-77
2021/04/03 01:44:16;;;;;;;14.68;8.38;;;6.00;99.90;;;5.02;83.20;102146.88;4135512;28;20081;-77
2021/04/03 01:46:21;;;;;;;11.48;7.13;;;5.90;99.90;;;5.33;82.29;102153.84;4135343;28;20033;-77
2021/04/03 01:48:24;;;;;;;11.73;7.40;;;5.90;99.90;;;5.28;82.11;102161.13;4135327;28;20572;-77
2021/04/03 01:50:26;;;;;;;12.73;7.30;;;5.90;99.90;;;5.20;82.60;102154.63;4135512;28;20022;-77
2021/04/03 01:52:32;;;;;;;12.10;6.68;;;5.90;99.90;;;5.17;82.64;102146.97;4136449;28;20031;-77
2021/04/03 01:54:34;;;;;;;13.15;8.32;;;5.90;99.90;;;5.06;82.78;102154.56;4135268;28;20073;-77
2021/04/03 01:56:36;;;;;;;18.50;8.55;;;5.80;99.90;;;5.05;82.72;102158.94;4134982;28;20137;-77
2021/04/03 01:58:38;;;;;;;12.65;7.13;;;5.80;99.90;;;5.11;83.14;102161.22;4136440;28;20029;-77
2021/04/03 02:00:41;;;;;;;11.98;7.30;;;5.80;99.90;;;4.84;83.83;102129.63;4136213;28;20027;-77
2021/04/03 02:02:44;;;;;;;16.23;8.15;;;5.80;99.90;;;5.01;83.52;102149.59;4136416;28;20033;-77
2021/04/03 02:04:46;;;;;;;13.25;7.45;;;5.80;99.90;;;4.97;82.82;102161.16;4135197;28;20022;-77
2021/04/03 02:06:48;;;;;;;13.50;6.97;;;5.70;99.90;;;4.93;82.69;102138.72;4136420;28;20045;-77
2021/04/03 02:08:49;;;;;;;17.08;7.30;;;5.80;99.90;;;5.05;83.02;102151.09;4118810;28;20560;-77
2021/04/03 02:10:52;;;;;;;13.52;7.20;;;5.80;99.90;;;5.01;83.73;102147.84;4118755;28;20031;-77
2021/04/03 02:12:54;;;;;;;11.02;6.10;;;5.60;99.90;;;5.15;82.85;102154.03;4134974;28;20092;-77
2021/04/03 02:14:55;;;;;;;9.75;6.38;;;5.70;99.90;;;5.06;82.49;102147.56;4136115;28;20027;-77
2021/04/03 02:16:58;;;;;;;10.80;7.25;;;5.70;99.90;;;5.01;82.79;102160.06;4135868;28;20089;-77
2021/04/03 02:19:04;;;;;;;16.27;6.72;;;5.70;99.90;;;5.00;82.61;102150.53;4134993;28;20041;-77
2021/04/03 02:21:07;;;;;;;11.02;6.22;;;5.70;99.90;;;5.10;81.93;102167.41;4134960;28;20034;-77
2021/04/03 02:23:08;;;;;;;12.93;7.35;;;5.70;99.90;;;5.08;82.13;102155.34;4136026;28;20026;-76
2021/04/03 02:25:15;;;;;;;9.40;6.43;;;5.70;99.90;;;5.02;82.74;102167.81;4134695;28;20421;-76
2021/04/03 02:27:16;;;;;;;11.52;6.68;;;5.70;99.90;;;4.91;83.47;102162.34;4135916;28;20109;-76
2021/04/03 02:29:17;;;;;;;16.25;6.38;;;5.70;99.90;;;5.03;82.72;102158.19;4134734;28;20062;-76
2021/04/03 02:31:18;;;;;;;13.60;6.57;;;5.70;99.90;;;5.19;81.71;102164.28;4135867;28;20030;-77
2021/04/03 02:33:20;;;;;;;10.52;6.10;;;5.70;99.90;;;5.04;81.96;102157.28;4135969;28;20509;-76
2021/04/03 02:35:27;;;;;;;14.10;6.72;;;5.70;99.90;;;5.05;82.59;102148.47;4135683;28;20030;-76
2021/04/03 02:37:28;;;;;;;12.25;7.28;;;5.70;99.90;;;5.18;81.06;102152.09;4135942;28;20027;-76
2021/04/03 02:39:29;;;;;;;9.73;5.63;;;5.80;99.90;;;5.33;81.74;102159.09;4134615;28;20449;-77
2021/04/03 02:41:55;;;;;;;13.07;6.55;;;5.70;99.90;;;5.26;80.77;102162.97;4118722;28;20031;-77
2021/04/03 02:44:25;;;;;;;11.05;6.38;;;5.80;99.90;;;5.15;82.66;102169.75;4134749;28;20038;-76
2021/04/03 02:46:52;;;;;;;10.75;6.80;;;5.80;99.90;;;5.06;82.24;102150.19;4122987;28;20433;-76
2021/04/03 02:49:02;;;;;;;12.57;6.70;;;5.80;99.90;;;4.99;82.34;102147.06;4120166;28;20058;-77
2021/04/03 02:51:06;;;;;;;12.43;6.38;;;5.70;99.90;;;5.13;82.48;102158.53;4134610;28;20038;-76
2021/04/03 02:53:14;;;;;;;11.85;6.95;;;5.70;99.90;;;5.00;82.49;102140.06;4134720;28;20034;-76
2021/04/03 02:55:17;;;;;;;10.90;6.50;;;5.60;99.90;;;5.15;82.52;102148.81;4135456;28;20457;-76
2021/04/03 02:57:19;;;;;;;14.40;7.65;;;5.60;99.90;;;5.26;81.31;102165.59;4134614;28;20026;-77
2021/04/03 02:59:27;;;;;;;13.10;7.38;;;5.60;99.90;;;5.07;81.68;102162.34;4134542;28;20026;-77
2021/04/03 03:01:29;;;;;;;15.50;7.65;;;5.60;99.90;;;4.81;83.56;102161.16;4134668;28;20549;-76
2021/04/03 03:03:33;;;;;;;12.90;7.28;;;5.50;99.90;;;5.00;82.35;102158.38;4134746;28;20022;-77
2021/04/03 03:05:34;;;;;;;12.90;7.72;;;5.40;99.90;;;4.83;82.64;102163.69;4134513;28;20027;-77
2021/04/03 03:07:42;;;;;;;11.07;7.82;;;5.50;99.90;;;5.00;82.60;102158.38;4134634;28;20038;-77
2021/04/03 03:09:46;;;;;;;8.30;7.10;;;5.40;99.90;;;4.93;83.23;102154.41;4134339;28;20039;-77
2021/04/03 03:11:51;;;;;;;13.60;8.70;;;5.40;99.90;;;4.77;84.10;102149.19;4134398;28;20038;-77
2021/04/03 03:13:53;;;;;;;16.48;8.38;;;5.40;99.90;;;4.75;83.57;102156.25;4135741;28;20030;-76
2021/04/03 03:15:54;;;;;;;14.02;8.25;;;5.40;99.90;;;4.64;83.46;102153.41;4134456;28;20031;-76
2021/04/03 03:17:57;;;;;;;11.15;8.77;;;5.40;99.90;;;4.68;83.72;102154.09;4134548;28;20019;-76
2021/04/03 03:20:01;;;;;;;13.52;8.75;;;5.40;99.90;;;4.80;83.88;102153.41;4134381;28;20051;-77
2021/04/03 03:22:02;;;;;;;17.52;7.30;;;5.30;99.90;;;4.61;83.80;102163.16;4134498;28;20385;-77
2021/04/03 03:24:08;;;;;;;13.70;8.68;;;5.30;99.90;;;4.59;85.03;102167.66;4135773;28;20073;-76
2021/04/03 03:26:09;;;;;;;12.40;9.15;;;5.30;99.90;;;4.80;83.31;102159.50;4135382;28;20053;-77
2021/04/03 03:28:10;;;;;;;14.48;8.85;;;5.30;99.90;;;4.57;84.12;102156.44;4135546;28;20030;-77
2021/04/03 03:30:16;;;;;;;13.65;8.18;;;5.30;99.90;;;4.85;83.44;102159.22;4135661;28;20037;-76
2021/04/03 03:32:17;;;;;;;16.63;8.52;;;5.30;99.90;;;4.68;84.16;102164.53;4134453;28;20121;-76
2021/04/03 03:34:18;;;;;;;13.82;8.98;;;5.20;99.90;;;4.50;84.51;102161.16;4135498;28;20117;-76
2021/04/03 03:36:20;;;;;;;16.65;9.90;;;5.20;99.90;;;4.66;83.74;102151.53;4135306;28;20041;-76
2021/04/03 03:38:22;;;;;;;17.00;9.50;;;5.20;99.90;;;4.71;83.57;102169.59;4134468;28;20027;-76
2021/04/03 03:40:24;;;;;;;12.65;8.80;;;5.20;99.90;;;4.63;83.47;102161.34;4136858;28;20109;-77
2021/04/03 03:42:26;;;;;;;15.73;9.38;;;5.20;99.90;;;4.50;84.72;102153.31;4137218;28;20050;-76
2021/04/03 03:44:28;;;;;;;18.80;9.80;;;5.20;99.90;;;4.64;84.61;102163.84;4137149;28;20034;-76
2021/04/03 03:46:29;;;;;;;13.07;9.20;;;5.10;99.90;;;4.64;84.54;102163.00;4138576;28;20052;-76
2021/04/03 03:48:29;;;;;;;14.02;9.88;;;5.20;99.90;;;4.64;83.97;102153.41;4138291;28;20047;-77
2021/04/03 03:50:30;;;;;;;17.67;9.68;;;5.10;99.90;;;4.62;84.59;102155.25;4138400;28;20050;-77
2021/04/03 03:52:31;;;;;;;12.57;8.73;;;5.10;99.90;;;4.73;83.47;102152.06;4138112;28;20026;-77
2021/04/03 03:54:32;;;;;;;15.75;9.20;;;5.10;99.90;;;4.58;83.22;102148.50;4136829;28;20129;-77
2021/04/03 03:56:34;;;;;;;15.23;10.15;;;5.10;99.90;;;4.65;84.33;102154.25;4137982;28;20081;-77
2021/04/03 03:58:35;;;;;;;14.13;9.23;;;5.10;99.90;;;4.75;83.29;102148.41;4138117;28;20026;-77
2021/04/03 04:00:36;;;;;;;13.98;8.82;;;5.20;99.90;;;4.78;83.82;102147.44;4137784;28;20062;-77
2021/04/03 04:02:37;;;;;;;14.77;8.90;;;5.20;99.90;;;4.73;83.54;102145.06;4138158;28;20072;-77
2021/04/03 04:04:38;;;;;;;18.95;9.63;;;5.20;99.90;;;4.34;85.66;102145.44;4138094;28;20053;-77
2021/04/03 04:06:39;;;;;;;12.50;10.15;;;5.10;99.90;;;4.20;86.31;102145.34;4138079;28;20064;-77
2021/04/03 04:08:42;;;;;;;21.67;10.45;;;5.10;99.90;;;4.43;85.79;102139.72;4137905;28;20030;-77
2021/04/03 04:10:43;;;;;;;13.05;9.32;;;5.00;99.90;;;4.27;85.54;102143.25;4137837;28;20645;-77
2021/04/03 04:12:44;;;;;;;18.13;9.27;;;5.00;99.90;;;4.39;85.49;102159.09;4136731;28;20026;-77
2021/04/03 04:14:45;;;;;;;16.25;9.45;;;5.00;99.90;;;4.47;84.99;102149.09;4137992;28;20394;-77
2021/04/03 04:16:46;;;;;;;14.73;9.32;;;5.00;99.90;;;4.38;84.94;102146.97;4137703;28;20038;-77
2021/04/03 04:18:47;;;;;;;14.77;9.38;;;5.00;99.90;;;4.47;85.14;102151.72;4137840;28;20026;-77
2021/04/03 04:20:48;;;;;;;10.63;9.15;;;5.00;99.90;;;4.58;85.60;102163.34;4137795;28;20059;-77
2021/04/03 04:22:49;;;;;;;13.00;8.63;;;5.10;99.90;;;4.57;83.81;102161.66;4137650;28;20041;-77
2021/04/03 04:24:49;;;;;;;14.15;10.77;;;5.10;99.90;;;4.42;84.80;102155.50;4137393;28;20022;-77
2021/04/03 04:26:52;;;;;;;19.20;9.52;;;5.00;99.90;;;4.61;85.39;102163.16;4137713;28;20077;-77
2021/04/03 04:28:53;;;;;;;17.10;9.10;;;5.00;99.90;;;4.37;85.18;102150.50;4120305;28;20027;-77
2021/04/03 04:30:54;;;;;;;12.27;8.52;;;5.00;99.90;;;4.53;85.36;102170.59;4137610;28;20041;-77
2021/04/03 04:32:55;;;;;;;13.82;9.00;;;5.10;99.90;;;4.45;84.84;102165.75;4137497;28;20045;-77
2021/04/03 04:34:55;;;;;;;16.33;9.93;;;5.00;99.90;;;4.31;86.36;102171.72;4137515;28;20409;-77
2021/04/03 04:36:56;;;;;;;15.30;8.45;;;5.00;99.90;;;4.35;85.15;102175.03;4137497;28;20030;-77
2021/04/03 04:38:57;;;;;;;14.68;8.73;;;5.00;99.90;;;4.20;86.07;102173.22;4137462;28;20031;-77
2021/04/03 04:40:58;;;;;;;14.30;9.18;;;4.90;99.90;;;4.07;88.91;102173.00;4135934;28;20030;-77
2021/04/03 04:42:59;;;;;;;15.68;8.23;;;4.90;99.90;;;4.21;87.03;102172.31;4137551;28;20037;-77
2021/04/03 04:45:00;;;;;;;14.70;8.50;;;4.90;99.90;;;4.26;86.72;102173.75;4136267;28;20062;-76
2021/04/03 04:47:02;;;;;;;14.38;9.55;;;4.80;99.90;;;4.30;87.06;102175.25;4137516;28;20085;-77
2021/04/03 04:49:02;;;;;;;18.10;10.57;;;4.90;99.90;;;4.43;85.69;102168.47;4137141;28;20049;-77
2021/04/03 04:51:04;;;;;;;13.35;8.02;;;4.80;99.90;;;4.34;85.94;102170.72;4136270;28;20490;-77
2021/04/03 04:53:08;;;;;;;13.77;8.85;;;4.90;99.90;;;4.22;85.83;102167.00;4137301;28;20022;-77
2021/04/03 04:55:10;;;;;;;12.55;8.07;;;4.90;99.90;;;4.20;86.82;102181.06;4136757;28;20117;-77
2021/04/03 04:57:11;;;;;;;15.43;8.05;;;4.90;99.90;;;4.39;85.70;102169.53;4136956;28;20026;-77
2021/04/03 04:59:12;;;;;;;12.00;7.70;;;4.90;99.90;;;4.39;85.72;102174.78;4137248;28;20448;-77
2021/04/03 05:01:13;;;;;;;17.25;8.15;;;4.90;99.90;;;4.12;85.96;102176.22;4137148;28;20027;-77
2021/04/03 05:03:14;;;;;;;10.57;7.68;;;4.90;99.90;;;4.25;85.06;102187.72;4137065;28;20022;-77
2021/04/03 05:05:15;;;;;;;14.23;8.27;;;4.90;99.90;;;4.20;86.31;102184.53;4135798;28;20070;-77
2021/04/03 05:07:17;;;;;;;16.13;8.73;;;4.90;99.90;;;4.32;85.71;102178.66;4137206;28;20030;-77
2021/04/03 05:09:18;;;;;;;10.90;7.68;;;4.80;99.90;;;4.34;85.11;102184.63;4136950;28;20053;-77
2021/04/03 05:11:18;;;;;;;14.10;9.13;;;4.80;99.90;;;4.50;84.35;102187.28;4136848;28;20034;-77
2021/04/03 05:13:19;;;;;;;12.48;8.10;;;4.80;99.90;;;4.41;84.27;102186.00;4136928;28;20390;-77
2021/04/03 05:15:20;;;;;;;16.83;8.82;;;4.80;99.90;;;4.38;84.15;102188.78;4136754;28;20023;-77
2021/04/03 05:17:22;;;;;;;16.05;7.55;;;4.80;99.90;;;4.24;85.10;102187.81;4137043;28;20057;-77
2021/04/03 05:19:23;;;;;;;13.95;8.00;;;4.90;99.90;;;4.33;86.15;102200.41;4136891;28;20121;-77
2021/04/03 05:21:24;;;;;;;12.10;7.63;;;4.90;99.90;;;4.36;84.58;102185.38;4136426;28;20046;-77
2021/04/03 05:23:25;;;;;;;14.07;8.10;;;4.90;99.90;;;4.45;84.62;102200.56;4136577;28;20486;-77
2021/04/03 05:25:26;;;;;;;10.38;7.32;;;4.90;99.90;;;4.41;83.85;102199.06;4136448;28;20449;-77
2021/04/03 05:27:27;;;;;;;16.70;8.68;;;4.90;99.90;;;4.37;84.77;102202.75;4136746;28;20034;-77
2021/04/03 05:29:27;;;;;;;10.30;7.18;;;4.90;99.90;;;4.38;84.54;102207.06;4136569;28;20022;-77
2021/04/03 05:31:28;;;;;;;14.02;7.95;;;4.90;99.90;;;4.40;84.28;102202.59;4136658;28;20038;-77
2021/04/03 05:33:29;;;;;;;12.68;6.80;;;4.90;99.90;;;4.40;84.14;102206.97;4136631;28;20026;-77
2021/04/03 05:35:30;;;;;;;11.05;7.47;;;4.90;99.90;;;4.44;83.92;102208.50;4136411;28;20035;-77
2021/04/03 05:37:31;;;;;;;14.85;7.38;;;4.90;99.90;;;4.41;83.72;102211.28;4136672;28;20053;-77
2021/04/03 05:39:32;;;;;;;18.67;7.65;;;4.80;99.90;;;4.49;83.73;102211.72;4136260;28;20114;-77
2021/04/03 05:41:33;;;;;;;12.35;7.32;;;4.90;99.90;;;4.53;82.98;102208.03;4136435;28;20494;-77
2021/04/03 05:43:35;;;;;;;18.10;7.72;;;4.90;99.90;;;4.53;83.71;102213.25;4135264;28;20066;-77
2021/04/03 05:45:38;;;;;;;16.42;8.35;;;4.90;99.90;;;4.42;83.13;102211.19;4136221;28;20406;-77
2021/04/03 05:47:39;;;;;;;16.88;7.60;;;4.90;99.90;;;4.47;83.75;102208.34;4136215;28;20030;-77
2021/04/03 05:49:41;;;;;;;13.75;7.50;;;4.90;99.90;;;4.43;83.89;102210.28;4136218;28;20050;-77
2021/04/03 05:51:43;;;;;;;13.30;7.97;;;4.90;99.90;;;4.32;83.69;102210.00;4136349;28;20033;-77
2021/04/03 05:53:44;;;;;;;11.95;7.95;;;4.90;99.90;;;4.44;84.93;102216.34;4136204;28;20030;-77
2021/04/03 05:55:45;;;;;;;12.50;7.57;;;5.00;99.90;;;4.40;83.34;102213.03;4135749;28;20046;-77
2021/04/03 05:57:46;;;;;;;12.20;7.45;;;5.00;99.90;;;4.40;83.13;102218.28;4136254;28;20027;-77
2021/04/03 05:59:48;;;;;;;10.05;7.38;;;5.10;99.90;;;4.48;83.60;102223.94;4136084;28;20030;-76
2021/04/03 06:01:49;;;;;;;10.35;6.97;;;5.10;99.90;;;4.56;83.53;102228.75;4134652;28;20031;-77
2021/04/03 06:03:50;;;;;;;13.57;8.13;;;5.20;99.90;;;4.45;83.93;102225.84;4136177;28;20018;-76
2021/04/03 06:05:52;;;;;;;11.52;8.50;;;5.20;99.90;;;4.42;84.11;102237.31;4135069;28;20118;-77
2021/04/03 06:07:53;;;;;;;18.05;7.90;;;5.20;99.90;;;4.48;84.95;102225.69;4136170;28;20034;-77
2021/04/03 06:09:55;;;;;;;12.65;6.95;;;5.30;99.90;;;4.69;83.83;102229.78;4118524;28;20046;-76
2021/04/03 06:11:56;;;;;;;11.48;7.80;;;5.40;99.90;;;4.45;83.94;102213.63;4134557;28;20096;-76
2021/04/03 06:13:57;;;;;;;16.70;7.93;;;5.40;99.90;;;4.64;82.65;102230.97;4118848;28;20030;-76
2021/04/03 06:15:58;;;;;;;11.35;7.35;;;5.40;99.90;;;4.78;82.21;102238.94;4136081;28;20515;-76
2021/04/03 06:18:01;;;;;;;16.73;9.27;;;5.50;99.90;;;4.76;81.78;102232.91;4136048;28;20034;-76
2021/04/03 06:20:02;;;;;;;13.00;8.50;;;5.60;99.90;;;4.79;82.73;102238.81;4134742;28;20018;-76
2021/04/03 06:22:05;;;;;;;13.43;8.13;;;5.60;99.90;;;4.65;82.78;102240.50;4136330;28;20050;-76
2021/04/03 06:24:31;;;;;;;12.10;8.25;;;5.70;99.90;;;4.58;81.56;102226.91;4136218;28;20049;-76
2021/04/03 06:26:32;;;;;;;15.05;8.20;;;5.60;99.90;;;4.86;81.10;102236.72;4114488;28;20043;-77
2021/04/03 06:28:33;;;;;;;14.07;8.77;;;5.60;99.90;;;4.98;80.78;102233.47;4134961;28;20509;-76
2021/04/03 06:30:38;;;;;;;14.38;8.10;;;5.70;99.90;;;4.98;80.15;102250.00;4135818;28;20026;-77
2021/04/03 06:32:39;;;;;;;16.08;8.85;;;5.70;99.90;;;5.09;81.03;102240.69;4135908;28;20042;-77
2021/04/03 06:34:45;;;;;;;17.85;8.27;;;5.70;99.90;;;5.19;80.37;102244.50;4134598;28;20030;-77
2021/04/03 06:36:46;;;;;;;11.32;8.02;;;5.80;99.90;;;5.09;80.23;102245.94;4135919;28;20058;-77
2021/04/03 06:38:47;;;;;;;10.63;7.90;;;5.80;99.90;;;5.32;78.97;102254.19;4135944;28;20449;-77
2021/04/03 06:40:50;;;;;;;13.52;7.95;;;5.90;99.90;;;5.06;79.72;102246.94;4135671;28;20022;-76
2021/04/03 06:42:57;;;;;;;13.70;9.90;;;6.00;99.90;;;5.32;79.42;102245.50;4134594;28;20034;-77
2021/04/03 06:45:31;;;;;;;11.95;7.85;;;6.00;99.90;;;5.43;78.38;102258.84;4136047;28;20105;-77
2021/04/03 06:47:33;;;;;;;15.55;9.48;;;6.10;99.90;;;5.18;79.29;102251.50;4135745;28;20483;-76
2021/04/03 06:49:35;;;;;;;16.00;9.32;;;6.10;99.90;;;5.33;79.10;102258.50;4134563;28;20052;-76
2021/04/03 06:51:37;;;;;;;20.27;9.85;;;6.20;99.90;;;5.44;79.84;102256.13;4134550;28;20088;-77
2021/04/03 06:53:38;;;;;;;15.70;9.00;;;6.30;99.90;;;5.49;78.92;102245.41;4119683;28;20038;-77
2021/04/03 06:55:42;;;;;;;16.10;9.77;;;6.40;99.90;;;5.34;80.02;102259.34;4134250;28;20041;-77
2021/04/03 06:57:45;;;;;;;12.88;8.55;;;6.50;99.90;;;5.68;78.45;102256.50;4106865;28;20491;-77
2021/04/03 06:59:46;;;;;;;18.83;9.27;;;6.60;99.90;;;5.69;78.53;102252.97;4119793;28;20019;-77
2021/04/03 07:01:56;;;;;;;15.55;9.25;;;6.70;99.90;;;5.80;77.88;102253.19;4134525;28;20050;-77
2021/04/03 07:03:59;;;;;;;14.05;9.23;;;6.90;99.90;;;5.87;78.02;102264.19;4134048;28;20030;-76
2021/04/03 07:06:00;;;;;;;13.13;9.35;;;6.90;99.90;;;6.00;77.03;102268.63;4134326;28;20034;-76
2021/04/03 07:08:07;;;;;;;12.40;9.43;;;7.10;99.90;;;5.91;77.08;102263.09;4119508;28;20034;-77
2021/04/03 07:10:13;;;;;;;12.20;8.98;;;7.10;99.90;;;5.43;79.32;102267.53;4117978;28;20192;-77
2021/04/03 07:12:17;;;;;;;12.52;8.45;;;7.00;99.90;;;5.67;78.51;102280.16;4119558;28;20105;-77
2021/04/03 07:14:20;;;;;;;12.63;9.02;;;6.90;99.90;;;5.63;79.37;102270.78;4119591;28;20027;-77
2021/04/03 07:16:23;;;;;;;10.90;8.48;;;6.80;99.90;;;5.96;78.71;102274.13;4122619;28;20077;-77
2021/04/03 07:18:25;;;;;;;13.10;9.27;;;6.90;99.90;;;6.17;77.54;102270.25;4122562;28;20486;-77
2021/04/03 07:20:30;;;;;;;13.38;9.45;;;6.90;99.90;;;6.06;77.21;102270.06;4137565;28;20026;-77
2021/04/03 07:22:31;;;;;;;14.18;9.43;;;7.10;99.90;;;5.98;76.82;102267.03;4122491;28;20022;-77
2021/04/03 07:24:35;;;;;;;14.82;9.98;;;7.30;99.90;;;6.20;77.11;102274.47;4137232;28;20041;-77
2021/04/03 07:26:41;;;;;;;13.40;9.32;;;7.30;99.90;;;6.22;76.73;102262.13;4137324;28;20030;-77
2021/04/03 07:28:43;;;;;;;15.07;8.27;;;7.40;99.90;;;6.22;76.46;102269.97;4137088;28;20030;-76
2021/04/03 07:30:46;;;;;;;15.13;9.20;;;7.50;99.90;;;6.46;76.49;102265.91;4122386;28;20034;-77
2021/04/03 07:32:47;;;;;;;11.63;7.82;;;7.50;99.90;;;6.58;76.02;102273.03;4122122;28;20035;-76
2021/04/03 07:34:48;;;;;;;13.35;8.60;;;7.60;99.90;;;6.35;75.49;102281.44;4128007;28;20029;-75
2021/04/03 07:36:49;;;;;;;14.93;8.57;;;7.70;99.90;;;6.47;75.54;102276.31;4121945;28;20043;-75
2021/04/03 07:38:50;;;;;;;17.50;8.48;;;7.80;99.90;;;6.57;75.35;102261.69;4121700;28;20027;-74
2021/04/03 07:40:55;;;;;;;14.13;8.02;;;7.90;99.90;;;6.67;75.33;102277.72;4123550;28;20030;-75
2021/04/03 07:42:57;;;;;;;12.40;8.27;;;7.90;99.90;;;6.82;75.46;102265.44;4121571;28;20026;-74
2021/04/03 07:44:58;;;;;;;14.02;8.35;;;8.00;99.90;;;6.91;75.32;102275.34;4137168;28;20026;-74
2021/04/03 07:47:18;;;;;;;16.23;9.23;;;8.10;99.90;;;6.78;73.62;102254.28;4136951;28;20034;-74
2021/04/03 07:49:33;;;;;;;10.82;7.68;;;8.30;99.90;;;7.37;73.50;102279.41;4134536;28;20060;-74
2021/04/03 07:51:34;;;;;;;;;;;8.40;99.90;;;7.18;72.85;102279.72;4138497;28;20033;-74
2021/04/03 07:53:43;;;;;;;10.63;7.60;;;8.40;99.90;;;7.12;72.60;102280.13;4137920;28;19916;-74
2021/04/03 07:55:44;;;;;;;9.57;6.57;;;8.50;99.90;;;7.12;73.08;102284.50;4137604;28;20026;-74
2021/04/03 07:57:45;;;;;;;9.15;7.30;;;8.60;99.90;;;7.20;73.19;102277.00;4138102;28;20433;-74
2021/04/03 07:59:48;;;;;;;11.93;6.30;;;8.60;99.90;;;7.07;72.75;102276.09;4143175;28;20041;-77
2021/04/03 08:01:50;;;;;;;11.05;6.45;;;8.60;99.90;;;7.18;72.28;102263.13;4144438;28;20041;-77
2021/04/03 08:03:59;;;;;;;12.70;6.93;;;8.50;99.90;;;7.33;71.67;102279.69;4136909;28;20026;-76
2021/04/03 08:06:10;;;;;;;11.20;6.45;;;8.40;99.90;;;7.12;70.80;102264.38;4137685;28;20027;-75
2021/04/03 08:08:11;;;;;;;9.07;6.30;;;8.30;99.90;;;7.08;71.24;102269.91;4136154;28;20032;-77
2021/04/03 08:10:19;;;;;;;12.93;6.25;;;8.30;99.90;;;7.16;71.12;102267.66;4136260;28;20401;-78
2021/04/03 08:12:24;;;;;;;10.63;6.15;;;8.20;99.90;;;7.36;71.67;102275.09;4137521;28;20038;-79
2021/04/03 08:14:29;;;;;;;7.07;5.93;;;8.30;99.90;;;7.43;71.36;102275.56;4135735;28;20150;-78
2021/04/03 08:16:32;;;;;;;10.63;5.90;;;8.30;99.90;;;7.10;70.81;102273.28;4135847;28;20529;-78
2021/04/03 08:18:35;;;;;;;7.47;5.07;;;8.30;99.90;;;7.46;69.98;102267.47;4137190;28;20022;-78
2021/04/03 08:20:37;;;;;;;8.95;4.88;;;8.40;99.90;;;7.28;70.21;102272.13;4137481;28;20030;-78
2021/04/03 08:22:56;;;;;;;10.68;5.72;;;8.40;99.90;;;7.15;69.98;102265.94;4135696;28;20536;-79
2021/04/03 08:24:59;;;;;;;9.70;5.57;;;8.40;99.90;;;7.17;70.62;102277.19;4135779;28;20060;-74
2021/04/03 08:27:01;;;;;;;11.43;6.82;;;8.40;99.90;;;7.18;71.12;102269.22;4137226;28;20042;-75
2021/04/03 08:29:02;;;;;;;18.63;5.95;;;8.30;99.90;;;7.13;69.96;102273.09;4137052;28;20110;-75
2021/04/03 08:31:25;;;;;;;8.15;5.03;;;8.30;99.90;;;7.24;69.99;102268.00;4137246;28;20026;-78
2021/04/03 08:33:30;;;;;;;10.20;5.65;;;8.50;99.90;;;7.35;70.41;102270.78;4137127;28;20522;-78
2021/04/03 08:35:32;;;;;;;13.20;5.65;;;8.50;99.90;;;7.64;69.37;102267.13;4137036;28;20032;-77
2021/04/03 08:37:33;;;;;;;11.82;5.40;;;8.70;99.90;;;7.77;69.15;102275.88;4135885;28;20034;-75
2021/04/03 08:39:34;;;;;;;10.02;4.78;;;8.90;99.90;;;7.94;69.31;102277.41;4136464;28;20559;-75
2021/04/03 08:41:40;;;;;;;9.65;5.93;;;9.10;99.90;;;7.56;69.22;102263.28;4136955;28;20037;-75